Happy Valley, Tennessee
Current Conditions -  °F | °C
As of 10:53 AM on Friday 19 Dec 2014 (Local Time) from KTYS Reporting Station
Overcast Overcast  
Wind Chill:   Ceiling: 25000
Heat Index:   Visibility: 10mi
Dew Point: -3°   Wind: 7mph
Humidity: 55%   Direction: 20°NNE
Pressure: 30.21"   Gusts: NA
Location:  35.5537°N, 83.9603°W
Report Text: KTYS 191553Z 02006KT 10SM OVC250 05/M03 A3021 RMK AO2 SLP235 T00501033
Loading
Personal Weather Stations






























Interactive Weather Map New forecast layout! Learn more

10-Day Weather Forecast

Advertisements
Track Severe Weather on mobile